Time;durP1;ratioP1;P1;durP2;ratioP2;P2;SDS_P1;SDS_P2;PMS_P1;PMS_P2;Temp;Humidity;BMP_temperature;BMP_pressure;BME280_temperature;BME280_humidity;BME280_pressure;Samples;Min_cycle;Max_cycle;Signal;HPM_P1;HPM_P2
2022/07/12 00:01:20;;;;;;;;;;;25.40;45.60;;;;;;5000660;28;19931;-64
2022/07/12 00:03:45;;;;;;;;;;;25.40;45.70;;;;;;5001603;28;20017;-64
2022/07/12 00:06:11;;;;;;;;;;;25.30;45.60;;;;;;5001348;28;20626;-63
2022/07/12 00:08:37;;;;;;;;;;;25.40;45.70;;;;;;5000280;28;19920;-64
2022/07/12 00:11:03;;;;;;;;;;;25.30;45.60;;;;;;5001945;28;19913;-64
2022/07/12 00:13:29;;;;;;;;;;;25.30;45.60;;;;;;5001193;28;19975;-64
2022/07/12 00:15:56;;;;;;;;;;;25.30;45.70;;;;;;5001990;28;19908;-64
2022/07/12 00:18:22;;;;;;;;;;;25.30;45.70;;;;;;5000045;28;19915;-64
2022/07/12 00:20:47;;;;;;;;;;;25.30;45.70;;;;;;5001037;28;20356;-63
2022/07/12 00:23:13;;;;;;;;;;;25.30;45.70;;;;;;4999389;28;19913;-64
2022/07/12 00:25:38;;;;;;;;;;;25.30;45.70;;;;;;5002490;28;20773;-64
2022/07/12 00:28:04;;;;;;;;;;;25.30;45.70;;;;;;5003117;28;20535;-65
2022/07/12 00:30:29;;;;;;;;;;;25.20;45.70;;;;;;4999651;28;20766;-63
2022/07/12 00:32:55;;;;;;;;;;;25.20;45.70;;;;;;5000070;28;19913;-64
2022/07/12 00:35:21;;;;;;;;;;;25.20;45.70;;;;;;4999286;28;19990;-65
2022/07/12 00:37:46;;;;;;;;;;;25.20;45.70;;;;;;4999887;28;19976;-65
2022/07/12 00:40:12;;;;;;;;;;;25.20;45.70;;;;;;5001069;28;20040;-64
2022/07/12 00:42:41;;;;;;;;;;;25.20;45.70;;;;;;5003021;28;20012;-66
2022/07/12 00:45:07;;;;;;;;;;;25.20;45.70;;;;;;4999679;28;19913;-65
2022/07/12 00:47:44;;;;;;;;;;;25.20;45.80;;;;;;5002644;28;19986;-66
2022/07/12 00:50:11;;;;;;;;;;;25.20;45.80;;;;;;4999410;28;19917;-64
2022/07/12 00:52:37;;;;;;;;;;;25.20;45.80;;;;;;5001427;28;19913;-65
2022/07/12 00:55:04;;;;;;;;;;;25.10;45.70;;;;;;5000838;28;19989;-64
2022/07/12 00:57:30;;;;;;;;;;;25.10;45.70;;;;;;5000281;28;19992;-64
2022/07/12 00:59:56;;;;;;;;;;;25.10;45.80;;;;;;5000450;28;20023;-65
2022/07/12 01:02:22;;;;;;;;;;;25.10;45.80;;;;;;4998921;28;20540;-65
2022/07/12 01:04:47;;;;;;;;;;;25.10;45.80;;;;;;4999703;28;19922;-64
2022/07/12 01:07:14;;;;;;;;;;;25.10;45.80;;;;;;4996972;28;19920;-66
2022/07/12 01:09:40;;;;;;;;;;;25.10;45.80;;;;;;4999945;28;20040;-63
2022/07/12 01:12:06;;;;;;;;;;;25.10;45.80;;;;;;4999017;28;19913;-65
2022/07/12 01:14:33;;;;;;;;;;;25.10;45.90;;;;;;5000322;28;20009;-63
2022/07/12 01:16:58;;;;;;;;;;;25.10;45.80;;;;;;5001163;28;20409;-64
2022/07/12 01:19:24;;;;;;;;;;;25.10;45.80;;;;;;4998823;28;19917;-65
2022/07/12 01:21:50;;;;;;;;;;;25.10;45.80;;;;;;4998861;28;19917;-63
2022/07/12 01:24:18;;;;;;;;;;;25.10;45.80;;;;;;4999384;28;19986;-62
2022/07/12 01:26:43;;;;;;;;;;;25.10;45.90;;;;;;5000420;28;20436;-64
2022/07/12 01:29:09;;;;;;;;;;;25.00;45.80;;;;;;4998414;28;19917;-64
2022/07/12 01:31:35;;;;;;;;;;;25.10;45.90;;;;;;4998541;28;20399;-64
2022/07/12 01:34:01;;;;;;;;;;;25.00;45.80;;;;;;4997962;28;20653;-65
2022/07/12 01:36:27;;;;;;;;;;;25.00;45.90;;;;;;4999081;28;19912;-64
2022/07/12 01:38:53;;;;;;;;;;;25.00;45.90;;;;;;4998733;28;19920;-65
2022/07/12 01:41:18;;;;;;;;;;;25.00;45.90;;;;;;5000531;28;20035;-64
2022/07/12 01:43:44;;;;;;;;;;;25.00;45.90;;;;;;5000297;28;19960;-64
2022/07/12 01:46:10;;;;;;;;;;;25.00;45.90;;;;;;4998549;28;20615;-64
2022/07/12 01:48:35;;;;;;;;;;;25.00;45.90;;;;;;4999391;28;19913;-65
2022/07/12 01:51:01;;;;;;;;;;;25.00;45.80;;;;;;4998735;28;20470;-65
2022/07/12 01:53:26;;;;;;;;;;;25.00;45.90;;;;;;4998042;28;19912;-64
2022/07/12 01:55:52;;;;;;;;;;;25.00;45.90;;;;;;5000097;28;20332;-64
2022/07/12 01:58:17;;;;;;;;;;;25.00;45.90;;;;;;4999803;28;19913;-64
2022/07/12 02:00:50;;;;;;;;;;;25.00;45.90;;;;;;4998297;28;19952;-65
2022/07/12 02:03:17;;;;;;;;;;;24.90;45.90;;;;;;4999671;28;19919;-65
2022/07/12 02:05:42;;;;;;;;;;;24.90;45.90;;;;;;5000910;28;20019;-63
2022/07/12 02:08:08;;;;;;;;;;;24.90;45.90;;;;;;4998216;28;19920;-64
2022/07/12 02:10:34;;;;;;;;;;;24.90;45.90;;;;;;4999690;28;19913;-63
2022/07/12 02:13:02;;;;;;;;;;;24.90;45.90;;;;;;5000628;28;19909;-66
2022/07/12 02:15:28;;;;;;;;;;;24.90;45.90;;;;;;4999480;28;19952;-64
2022/07/12 02:17:53;;;;;;;;;;;24.90;45.90;;;;;;4999214;28;19935;-63
2022/07/12 02:20:19;;;;;;;;;;;24.90;45.90;;;;;;4998481;28;20647;-65
2022/07/12 02:22:44;;;;;;;;;;;24.90;46.00;;;;;;4998614;28;19920;-65
2022/07/12 02:25:10;;;;;;;;;;;24.90;46.00;;;;;;4997249;28;19913;-65
2022/07/12 02:27:35;;;;;;;;;;;24.90;46.00;;;;;;5000798;28;19913;-65
2022/07/12 02:30:01;;;;;;;;;;;24.90;46.00;;;;;;5000096;28;20012;-64
2022/07/12 02:32:27;;;;;;;;;;;24.90;46.00;;;;;;5000019;28;19921;-65
2022/07/12 02:34:52;;;;;;;;;;;24.80;46.00;;;;;;4998021;28;19913;-64
2022/07/12 02:37:18;;;;;;;;;;;24.90;46.00;;;;;;5000095;28;19917;-65
2022/07/12 02:39:43;;;;;;;;;;;24.80;45.90;;;;;;4998160;28;19913;-64
2022/07/12 02:42:09;;;;;;;;;;;24.80;45.90;;;;;;4998017;28;19927;-64
2022/07/12 02:44:34;;;;;;;;;;;24.80;45.90;;;;;;5004489;28;20622;-65
2022/07/12 02:47:00;;;;;;;;;;;24.80;46.00;;;;;;5003057;28;19912;-65
2022/07/12 02:49:26;;;;;;;;;;;24.80;46.00;;;;;;5002875;28;19913;-64
2022/07/12 02:51:51;;;;;;;;;;;24.80;46.00;;;;;;5002367;28;19935;-65
2022/07/12 02:54:16;;;;;;;;;;;24.80;46.00;;;;;;5003992;28;21238;-65
2022/07/12 02:56:42;;;;;;;;;;;24.80;46.00;;;;;;5004445;28;19963;-63
2022/07/12 02:59:07;;;;;;;;;;;24.80;46.00;;;;;;5004588;28;19909;-65
2022/07/12 03:01:33;;;;;;;;;;;24.80;46.10;;;;;;5001790;28;19921;-66
2022/07/12 03:03:58;;;;;;;;;;;24.80;46.10;;;;;;5002243;28;20008;-63
2022/07/12 03:06:24;;;;;;;;;;;24.80;46.10;;;;;;4999951;28;19913;-63
2022/07/12 03:08:50;;;;;;;;;;;24.80;46.00;;;;;;5003633;28;19909;-64
2022/07/12 03:11:15;;;;;;;;;;;24.80;46.10;;;;;;5001685;28;19913;-64
2022/07/12 03:13:41;;;;;;;;;;;24.80;46.10;;;;;;5001596;28;19920;-65
2022/07/12 03:16:07;;;;;;;;;;;24.70;46.00;;;;;;4998419;28;19963;-65
2022/07/12 03:18:33;;;;;;;;;;;24.70;46.00;;;;;;5003931;28;20596;-64
2022/07/12 03:20:58;;;;;;;;;;;24.70;46.10;;;;;;5002367;28;19917;-65
2022/07/12 03:23:24;;;;;;;;;;;24.80;46.10;;;;;;5001691;28;19913;-65
2022/07/12 03:25:49;;;;;;;;;;;24.70;46.10;;;;;;4998002;28;19920;-64
2022/07/12 03:28:15;;;;;;;;;;;24.70;46.00;;;;;;5000631;28;19913;-64
2022/07/12 03:30:40;;;;;;;;;;;24.70;46.10;;;;;;5000223;28;20065;-65
2022/07/12 03:33:06;;;;;;;;;;;24.80;46.10;;;;;;5001812;28;19913;-65
2022/07/12 03:35:31;;;;;;;;;;;24.70;45.80;;;;;;4998573;28;19909;-63
2022/07/12 03:37:57;;;;;;;;;;;24.70;45.50;;;;;;4998909;28;19913;-64
2022/07/12 03:40:22;;;;;;;;;;;24.60;45.40;;;;;;5001486;28;19917;-62
2022/07/12 03:42:48;;;;;;;;;;;24.50;45.30;;;;;;5002415;28;20079;-63
2022/07/12 03:45:14;;;;;;;;;;;24.50;45.30;;;;;;5000414;28;20083;-65
2022/07/12 03:47:39;;;;;;;;;;;24.50;45.30;;;;;;5002689;28;19947;-65
2022/07/12 03:50:06;;;;;;;;;;;24.40;45.20;;;;;;5003633;28;19920;-64
2022/07/12 03:52:32;;;;;;;;;;;24.40;45.20;;;;;;4998995;28;19914;-65
2022/07/12 03:54:57;;;;;;;;;;;24.30;45.30;;;;;;5000812;28;19960;-65
2022/07/12 03:57:24;;;;;;;;;;;24.30;45.30;;;;;;5001417;28;19920;-64
2022/07/12 03:59:49;;;;;;;;;;;24.30;45.30;;;;;;5001907;28;19924;-64
2022/07/12 04:02:15;;;;;;;;;;;24.30;45.30;;;;;;5000781;28;19997;-65
2022/07/12 04:04:41;;;;;;;;;;;24.30;45.40;;;;;;5001749;28;20008;-64
2022/07/12 04:07:07;;;;;;;;;;;24.30;45.40;;;;;;4999638;28;20750;-65
2022/07/12 04:09:32;;;;;;;;;;;24.30;45.40;;;;;;5000162;28;19948;-64
2022/07/12 04:11:58;;;;;;;;;;;24.20;45.50;;;;;;4999944;28;20008;-64
2022/07/12 04:14:23;;;;;;;;;;;24.10;45.50;;;;;;5000514;28;19913;-64
2022/07/12 04:16:48;;;;;;;;;;;24.10;45.50;;;;;;4999613;28;20091;-64
2022/07/12 04:19:14;;;;;;;;;;;24.10;45.50;;;;;;4998507;28;19959;-64
2022/07/12 04:21:40;;;;;;;;;;;24.10;45.60;;;;;;4999583;28;19921;-63
2022/07/12 04:24:05;;;;;;;;;;;24.00;45.70;;;;;;4998359;28;19919;-64
2022/07/12 04:26:31;;;;;;;;;;;24.00;45.80;;;;;;4999598;28;20618;-64
2022/07/12 04:28:57;;;;;;;;;;;24.00;45.80;;;;;;5002598;28;19912;-65
2022/07/12 04:31:22;;;;;;;;;;;24.00;45.80;;;;;;5000019;28;20027;-61
2022/07/12 04:33:48;;;;;;;;;;;24.00;46.00;;;;;;5000599;28;19913;-63
2022/07/12 04:36:13;;;;;;;;;;;23.90;46.00;;;;;;5000598;28;19984;-63
2022/07/12 04:38:39;;;;;;;;;;;23.90;46.10;;;;;;5001297;28;19917;-64
2022/07/12 04:41:04;;;;;;;;;;;23.90;46.10;;;;;;4999501;28;20704;-61
2022/07/12 04:43:30;;;;;;;;;;;23.90;46.10;;;;;;5001280;28;19913;-62
2022/07/12 04:45:55;;;;;;;;;;;23.90;46.20;;;;;;4999841;28;19913;-64
2022/07/12 04:48:21;;;;;;;;;;;23.90;46.20;;;;;;4999040;28;19917;-64
2022/07/12 04:50:46;;;;;;;;;;;23.80;46.30;;;;;;4998983;28;20576;-64
2022/07/12 04:53:12;;;;;;;;;;;23.80;46.30;;;;;;4995926;28;20402;-63
2022/07/12 04:55:37;;;;;;;;;;;23.80;46.20;;;;;;4998222;28;19986;-62
2022/07/12 04:58:04;;;;;;;;;;;23.80;46.90;;;;;;4998099;28;20683;-64
2022/07/12 05:00:29;;;;;;;;;;;23.80;46.50;;;;;;4999738;28;19929;-63
2022/07/12 05:02:55;;;;;;;;;;;23.70;46.60;;;;;;4998621;28;19917;-63
2022/07/12 05:05:20;;;;;;;;;;;23.70;46.80;;;;;;5001124;28;19913;-63
2022/07/12 05:07:46;;;;;;;;;;;23.70;46.90;;;;;;4996778;28;19917;-62
2022/07/12 05:10:12;;;;;;;;;;;23.70;46.90;;;;;;5001369;28;19924;-62
2022/07/12 05:12:37;;;;;;;;;;;23.70;47.00;;;;;;4998480;28;19939;-64
2022/07/12 05:15:04;;;;;;;;;;;23.70;47.00;;;;;;5003390;28;19923;-63
2022/07/12 05:17:29;;;;;;;;;;;23.70;46.90;;;;;;5002563;28;19917;-64
2022/07/12 05:19:55;;;;;;;;;;;23.70;46.90;;;;;;4999997;28;19917;-64
2022/07/12 05:22:20;;;;;;;;;;;23.70;46.90;;;;;;5000177;28;19966;-63
2022/07/12 05:24:46;;;;;;;;;;;23.70;47.10;;;;;;4997164;28;19974;-63
2022/07/12 05:27:11;;;;;;;;;;;23.60;47.10;;;;;;4998114;28;19917;-63
2022/07/12 05:29:37;;;;;;;;;;;23.60;47.10;;;;;;4999801;28;20049;-63
2022/07/12 05:32:02;;;;;;;;;;;23.60;47.30;;;;;;4999054;28;20704;-63
2022/07/12 05:34:28;;;;;;;;;;;23.50;47.80;;;;;;4995114;28;19917;-63
2022/07/12 05:36:54;;;;;;;;;;;23.50;47.70;;;;;;4993760;28;19913;-63
2022/07/12 05:39:19;;;;;;;;;;;23.60;47.70;;;;;;4998893;28;19956;-62
2022/07/12 05:41:46;;;;;;;;;;;23.70;47.60;;;;;;5002393;28;19971;-63
2022/07/12 05:44:12;;;;;;;;;;;23.80;47.20;;;;;;5000656;28;19924;-63
2022/07/12 05:46:39;;;;;;;;;;;23.90;47.10;;;;;;5001005;28;19913;-63
2022/07/12 05:49:04;;;;;;;;;;;24.00;46.90;;;;;;4999555;28;20416;-62
2022/07/12 05:54:14;;;;;;;;;;;24.20;46.40;;;;;;5001799;28;20332;-63
2022/07/12 05:56:39;;;;;;;;;;;24.30;46.30;;;;;;5000308;28;19917;-63
2022/07/12 05:59:05;;;;;;;;;;;24.40;46.10;;;;;;5000077;28;20656;-63
2022/07/12 06:01:30;;;;;;;;;;;24.50;46.00;;;;;;4999230;28;19921;-63
2022/07/12 06:03:56;;;;;;;;;;;24.50;45.70;;;;;;4999632;28;19913;-64
2022/07/12 06:06:21;;;;;;;;;;;24.50;45.70;;;;;;4999715;28;20609;-61
2022/07/12 06:08:47;;;;;;;;;;;24.50;45.60;;;;;;4995516;28;19924;-63
2022/07/12 06:11:12;;;;;;;;;;;24.50;45.60;;;;;;4998667;28;20444;-63
2022/07/12 06:13:38;;;;;;;;;;;24.50;45.60;;;;;;5001037;28;19913;-64
2022/07/12 06:16:05;;;;;;;;;;;24.60;45.60;;;;;;5001742;28;19913;-64
2022/07/12 06:18:31;;;;;;;;;;;24.50;45.60;;;;;;5001646;28;19916;-63
2022/07/12 06:20:57;;;;;;;;;;;24.60;45.60;;;;;;5001562;28;19924;-63
2022/07/12 06:23:22;;;;;;;;;;;24.60;45.50;;;;;;5001965;28;19924;-61
2022/07/12 06:25:48;;;;;;;;;;;24.60;45.60;;;;;;5002840;28;19917;-63
2022/07/12 06:28:13;;;;;;;;;;;24.60;45.60;;;;;;5004044;28;20631;-61
2022/07/12 06:30:39;;;;;;;;;;;24.70;45.60;;;;;;5003405;28;19924;-63
2022/07/12 06:33:05;;;;;;;;;;;24.70;45.50;;;;;;5003533;28;19917;-64
2022/07/12 06:35:30;;;;;;;;;;;24.70;45.50;;;;;;5003442;28;20039;-62
2022/07/12 06:37:56;;;;;;;;;;;24.80;45.50;;;;;;5000013;28;20509;-63
2022/07/12 06:40:22;;;;;;;;;;;24.80;45.40;;;;;;5002590;28;19917;-61
2022/07/12 06:42:48;;;;;;;;;;;24.80;45.40;;;;;;5003026;28;19971;-63
2022/07/12 06:45:14;;;;;;;;;;;24.80;45.50;;;;;;5004633;28;19982;-61
2022/07/12 06:47:39;;;;;;;;;;;24.80;45.30;;;;;;5004008;28;19925;-63
2022/07/12 06:50:05;;;;;;;;;;;24.80;45.40;;;;;;5002772;28;19939;-64
2022/07/12 06:52:30;;;;;;;;;;;24.80;45.40;;;;;;5003366;28;19917;-63
2022/07/12 06:54:56;;;;;;;;;;;24.90;45.70;;;;;;5001410;28;19939;-64
2022/07/12 06:57:22;;;;;;;;;;;24.80;45.50;;;;;;5003811;28;19913;-62
2022/07/12 06:59:48;;;;;;;;;;;24.90;45.50;;;;;;5001181;28;20408;-63
2022/07/12 07:02:13;;;;;;;;;;;24.90;45.50;;;;;;5004658;28;20113;-62
2022/07/12 07:04:39;;;;;;;;;;;24.90;45.50;;;;;;5000800;28;20070;-63
2022/07/12 07:07:04;;;;;;;;;;;25.00;45.40;;;;;;5002959;28;19963;-62
2022/07/12 07:09:30;;;;;;;;;;;25.00;45.30;;;;;;5004739;28;20640;-63
2022/07/12 07:11:56;;;;;;;;;;;25.00;45.30;;;;;;5003566;28;19940;-61
2022/07/12 07:14:21;;;;;;;;;;;25.00;45.20;;;;;;5003892;28;19921;-62
2022/07/12 07:16:47;;;;;;;;;;;25.10;45.20;;;;;;5003113;28;19919;-63
2022/07/12 07:19:12;;;;;;;;;;;25.10;45.30;;;;;;4999047;28;20567;-61
2022/07/12 07:21:38;;;;;;;;;;;25.10;45.30;;;;;;5002587;28;19992;-63
2022/07/12 07:24:03;;;;;;;;;;;25.10;45.20;;;;;;4999314;28;19913;-62
2022/07/12 07:26:29;;;;;;;;;;;25.10;45.30;;;;;;5004601;28;20543;-62
2022/07/12 07:31:39;;;;;;;;;;;25.10;45.10;;;;;;5002372;28;19989;-64
2022/07/12 07:34:05;;;;;;;;;;;25.20;45.10;;;;;;4998401;28;19917;-62
2022/07/12 07:36:31;;;;;;;;;;;25.20;45.20;;;;;;5002175;28;19913;-62
2022/07/12 07:38:57;;;;;;;;;;;25.20;45.10;;;;;;5000803;28;20088;-62
2022/07/12 07:41:22;;;;;;;;;;;25.20;45.10;;;;;;4998315;28;19921;-62
2022/07/12 07:43:48;;;;;;;;;;;25.20;45.00;;;;;;5003238;28;20595;-64
2022/07/12 07:46:13;;;;;;;;;;;25.20;45.00;;;;;;5001869;28;19909;-64
2022/07/12 07:48:39;;;;;;;;;;;25.30;45.10;;;;;;4999484;28;19964;-65
2022/07/12 07:51:04;;;;;;;;;;;25.30;45.00;;;;;;5001520;28;19971;-65
2022/07/12 07:53:30;;;;;;;;;;;25.30;45.00;;;;;;5002461;28;19909;-64
2022/07/12 07:55:55;;;;;;;;;;;25.40;45.00;;;;;;5001867;28;19913;-65
2022/07/12 07:58:21;;;;;;;;;;;25.30;44.90;;;;;;5008771;28;19920;-65
2022/07/12 08:00:46;;;;;;;;;;;25.40;45.00;;;;;;5016836;28;19941;-62
2022/07/12 08:03:12;;;;;;;;;;;25.40;45.00;;;;;;5022743;28;19999;-62
2022/07/12 08:05:37;;;;;;;;;;;25.40;45.00;;;;;;5010279;28;20490;-62
2022/07/12 08:08:03;;;;;;;;;;;25.40;44.90;;;;;;5010537;28;19912;-62
2022/07/12 08:10:29;;;;;;;;;;;25.40;44.90;;;;;;5008086;28;19913;-61
2022/07/12 08:12:54;;;;;;;;;;;25.40;44.90;;;;;;5001334;28;20024;-62
2022/07/12 08:15:20;;;;;;;;;;;25.40;44.80;;;;;;4999396;28;19975;-63
2022/07/12 08:17:45;;;;;;;;;;;25.50;44.80;;;;;;5001750;28;20475;-63
2022/07/12 08:20:11;;;;;;;;;;;25.50;44.80;;;;;;4999552;28;19917;-62
2022/07/12 08:22:42;;;;;;;;;;;25.50;44.80;;;;;;4999779;28;19939;-62
2022/07/12 08:25:08;;;;;;;;;;;25.50;44.80;;;;;;4999587;28;19936;-63
2022/07/12 08:27:33;;;;;;;;;;;25.50;44.80;;;;;;5000931;28;19916;-62
2022/07/12 08:29:59;;;;;;;;;;;25.50;44.70;;;;;;5001789;28;20067;-62
2022/07/12 08:32:24;;;;;;;;;;;25.60;44.80;;;;;;5002425;28;19917;-60
2022/07/12 08:34:50;;;;;;;;;;;25.50;44.70;;;;;;4999764;28;20860;-60
2022/07/12 08:37:15;;;;;;;;;;;25.60;44.80;;;;;;4997339;28;19917;-63
2022/07/12 08:39:40;;;;;;;;;;;25.60;44.80;;;;;;4999455;28;20652;-62
2022/07/12 08:42:07;;;;;;;;;;;25.60;44.70;;;;;;5000850;28;19916;-63
2022/07/12 08:44:32;;;;;;;;;;;25.60;44.70;;;;;;5000605;28;19909;-61
2022/07/12 08:46:58;;;;;;;;;;;25.60;44.70;;;;;;5002247;28;19996;-62
2022/07/12 08:49:23;;;;;;;;;;;25.60;44.70;;;;;;5001793;28;19920;-62
2022/07/12 08:51:49;;;;;;;;;;;25.60;44.60;;;;;;4998518;28;19925;-62
2022/07/12 08:54:16;;;;;;;;;;;25.60;44.70;;;;;;5001831;28;20637;-62
2022/07/12 08:56:42;;;;;;;;;;;25.60;44.60;;;;;;4999049;28;19952;-63
2022/07/12 08:59:11;;;;;;;;;;;25.60;44.70;;;;;;4999891;28;20051;-62
2022/07/12 09:01:45;;;;;;;;;;;25.70;44.80;;;;;;5001920;28;19921;-62
2022/07/12 09:04:15;;;;;;;;;;;25.70;44.70;;;;;;4999092;28;19919;-61
2022/07/12 09:06:40;;;;;;;;;;;25.70;44.70;;;;;;5000182;28;19948;-61
2022/07/12 09:09:08;;;;;;;;;;;25.70;44.60;;;;;;5001696;28;19958;-62
2022/07/12 09:11:46;;;;;;;;;;;25.70;44.80;;;;;;4999510;28;19920;-62
2022/07/12 09:14:17;;;;;;;;;;;25.70;44.80;;;;;;5000429;28;19960;-62
2022/07/12 09:16:43;;;;;;;;;;;25.70;44.80;;;;;;5002000;28;20620;-61
2022/07/12 09:19:12;;;;;;;;;;;25.70;44.70;;;;;;5001255;28;19920;-62
2022/07/12 09:21:45;;;;;;;;;;;25.70;44.60;;;;;;4998498;28;19917;-62
2022/07/12 09:24:10;;;;;;;;;;;25.70;44.60;;;;;;5001999;28;20010;-62
2022/07/12 09:26:37;;;;;;;;;;;25.70;44.60;;;;;;5000888;28;19913;-62
2022/07/12 09:29:06;;;;;;;;;;;25.80;44.60;;;;;;5000371;28;19913;-62
2022/07/12 09:37:20;;;;;;;;;;;25.80;44.50;;;;;;5001228;28;19987;-63
2022/07/12 09:39:47;;;;;;;;;;;25.80;44.50;;;;;;5002202;28;20432;-63
2022/07/12 09:42:12;;;;;;;;;;;25.80;44.50;;;;;;5005449;28;19917;-63
2022/07/12 09:44:41;;;;;;;;;;;25.80;44.50;;;;;;5010052;28;20636;-65
2022/07/12 09:47:13;;;;;;;;;;;25.80;44.40;;;;;;4999180;28;20643;-65
2022/07/12 09:49:39;;;;;;;;;;;25.80;44.50;;;;;;4991914;28;19932;-63
2022/07/12 09:52:05;;;;;;;;;;;25.80;44.40;;;;;;4997905;28;20011;-65
2022/07/12 09:54:31;;;;;;;;;;;25.90;44.50;;;;;;4997750;28;19913;-63
2022/07/12 09:56:58;;;;;;;;;;;25.90;44.40;;;;;;4999056;28;19917;-65
2022/07/12 09:59:27;;;;;;;;;;;25.80;44.40;;;;;;4995352;28;20671;-65
2022/07/12 10:01:55;;;;;;;;;;;25.80;44.40;;;;;;4999408;28;19936;-65
2022/07/12 10:04:21;;;;;;;;;;;25.80;44.40;;;;;;5000242;28;19913;-64
2022/07/12 10:06:47;;;;;;;;;;;25.90;44.40;;;;;;4996703;28;19919;-66
2022/07/12 10:09:14;;;;;;;;;;;25.90;44.40;;;;;;4995214;28;19913;-66
2022/07/12 10:11:40;;;;;;;;;;;25.80;44.40;;;;;;4994874;28;20019;-65
2022/07/12 10:14:06;;;;;;;;;;;25.90;44.50;;;;;;4996752;28;20673;-64
2022/07/12 10:16:34;;;;;;;;;;;25.90;44.40;;;;;;5000405;28;19959;-65
2022/07/12 10:19:18;;;;;;;;;;;25.90;44.40;;;;;;4999464;28;20446;-65
2022/07/12 10:21:46;;;;;;;;;;;25.90;44.40;;;;;;4996584;28;19981;-64
2022/07/12 10:24:30;;;;;;;;;;;25.90;44.40;;;;;;4999431;28;20023;-63
2022/07/12 10:26:56;;;;;;;;;;;25.90;44.40;;;;;;4998372;28;19924;-65
2022/07/12 10:29:22;;;;;;;;;;;25.90;44.50;;;;;;4999167;28;20671;-66
2022/07/12 10:31:48;;;;;;;;;;;25.90;44.40;;;;;;4997792;28;19917;-65
2022/07/12 10:34:14;;;;;;;;;;;25.90;44.40;;;;;;5000876;28;19909;-65
2022/07/12 10:36:55;;;;;;;;;;;25.90;44.40;;;;;;4996895;28;19917;-66
2022/07/12 10:39:21;;;;;;;;;;;25.80;44.30;;;;;;4997105;28;19917;-64
2022/07/12 10:42:05;;;;;;;;;;;25.80;44.40;;;;;;4993374;28;19917;-63
2022/07/12 10:44:41;;;;;;;;;;;25.80;44.40;;;;;;4999074;28;20350;-62
2022/07/12 10:47:07;;;;;;;;;;;25.80;44.40;;;;;;5000675;28;19913;-63
2022/07/12 10:49:33;;;;;;;;;;;25.80;44.40;;;;;;4998138;28;19917;-62
2022/07/12 10:52:11;;;;;;;;;;;25.80;44.40;;;;;;4995165;28;19912;-64
2022/07/12 10:54:40;;;;;;;;;;;25.80;44.40;;;;;;4996880;28;19920;-64
2022/07/12 10:57:06;;;;;;;;;;;25.80;44.40;;;;;;4998428;28;19913;-61
2022/07/12 10:59:35;;;;;;;;;;;25.80;44.40;;;;;;4998076;28;19948;-62
2022/07/12 11:02:01;;;;;;;;;;;25.80;44.40;;;;;;4999255;28;20019;-63
2022/07/12 11:04:29;;;;;;;;;;;25.80;44.40;;;;;;5001169;28;19989;-64
2022/07/12 11:06:56;;;;;;;;;;;25.80;44.50;;;;;;4995029;28;19971;-63
2022/07/12 11:09:23;;;;;;;;;;;25.80;44.70;;;;;;5002664;28;19913;-64
2022/07/12 11:11:49;;;;;;;;;;;25.80;44.50;;;;;;4997680;28;19914;-61
2022/07/12 11:14:22;;;;;;;;;;;25.80;44.50;;;;;;4999713;28;19963;-63
2022/07/12 11:16:48;;;;;;;;;;;25.80;44.50;;;;;;4997075;28;19952;-63
2022/07/12 11:19:15;;;;;;;;;;;25.80;44.60;;;;;;4999671;28;19970;-61
2022/07/12 11:21:44;;;;;;;;;;;25.90;44.60;;;;;;4998557;28;19927;-62
2022/07/12 11:24:19;;;;;;;;;;;25.90;44.50;;;;;;5001921;28;20759;-62
2022/07/12 11:26:46;;;;;;;;;;;25.90;44.50;;;;;;5003226;28;19916;-62
2022/07/12 11:29:12;;;;;;;;;;;25.90;44.40;;;;;;5000049;28;20027;-63
2022/07/12 11:31:38;;;;;;;;;;;25.90;44.50;;;;;;4995924;28;19970;-63
2022/07/12 11:34:03;;;;;;;;;;;25.90;44.50;;;;;;4999162;28;20010;-62
2022/07/12 11:36:29;;;;;;;;;;;25.90;44.50;;;;;;5000233;28;19987;-62
2022/07/12 11:38:55;;;;;;;;;;;26.00;44.50;;;;;;4999627;28;19917;-62
2022/07/12 11:41:22;;;;;;;;;;;26.00;44.50;;;;;;4998983;28;19913;-62
2022/07/12 11:43:48;;;;;;;;;;;26.00;44.60;;;;;;5000479;28;19913;-63
2022/07/12 11:46:13;;;;;;;;;;;26.00;44.60;;;;;;5001383;28;19917;-63
2022/07/12 11:48:41;;;;;;;;;;;26.00;44.70;;;;;;5002125;28;19914;-62
2022/07/12 11:51:08;;;;;;;;;;;26.00;44.60;;;;;;5004153;28;19963;-64
2022/07/12 11:53:34;;;;;;;;;;;26.00;44.60;;;;;;5002008;28;20014;-64
2022/07/12 11:56:01;;;;;;;;;;;26.00;44.60;;;;;;4999159;28;19919;-63
2022/07/12 11:58:27;;;;;;;;;;;26.10;44.60;;;;;;4997452;28;19956;-63
2022/07/12 12:00:53;;;;;;;;;;;26.10;44.60;;;;;;5000841;28;19921;-63
2022/07/12 12:03:19;;;;;;;;;;;26.10;44.70;;;;;;5001426;28;20589;-62
2022/07/12 12:05:48;;;;;;;;;;;26.10;44.60;;;;;;5000053;28;19936;-65
2022/07/12 12:08:14;;;;;;;;;;;26.10;44.60;;;;;;4999959;28;19913;-64
2022/07/12 12:10:40;;;;;;;;;;;26.10;44.60;;;;;;5002282;28;19917;-63
2022/07/12 12:13:12;;;;;;;;;;;26.10;44.60;;;;;;5002803;28;19953;-64
2022/07/12 12:15:37;;;;;;;;;;;26.10;44.60;;;;;;4995805;28;19956;-63
2022/07/12 12:18:04;;;;;;;;;;;26.10;44.60;;;;;;5001848;28;19962;-63
2022/07/12 12:20:31;;;;;;;;;;;26.10;44.60;;;;;;5000583;28;19960;-62
2022/07/12 12:22:58;;;;;;;;;;;26.20;44.60;;;;;;5000438;28;19957;-64
2022/07/12 12:25:24;;;;;;;;;;;26.20;44.70;;;;;;4999611;28;19975;-64
2022/07/12 12:27:53;;;;;;;;;;;26.20;44.70;;;;;;5000120;28;19941;-64
2022/07/12 12:30:19;;;;;;;;;;;26.20;44.70;;;;;;5000914;28;20026;-63
2022/07/12 12:32:47;;;;;;;;;;;26.20;44.70;;;;;;5002284;28;19912;-64
2022/07/12 12:35:14;;;;;;;;;;;26.20;44.80;;;;;;5002008;28;20594;-64
2022/07/12 12:37:40;;;;;;;;;;;26.20;44.80;;;;;;4999862;28;19919;-63
2022/07/12 12:40:06;;;;;;;;;;;26.20;44.80;;;;;;5000610;28;19987;-64
2022/07/12 12:42:32;;;;;;;;;;;26.30;44.80;;;;;;5002179;28;20651;-65
2022/07/12 12:44:57;;;;;;;;;;;26.30;45.10;;;;;;5002024;28;19960;-64
2022/07/12 12:47:32;;;;;;;;;;;26.30;45.00;;;;;;5001346;28;19940;-64
2022/07/12 12:50:00;;;;;;;;;;;26.30;45.00;;;;;;4996846;28;20416;-63
2022/07/12 12:52:26;;;;;;;;;;;26.30;44.90;;;;;;4998502;28;20050;-63
2022/07/12 12:54:52;;;;;;;;;;;26.30;45.50;;;;;;4998114;28;19927;-62
2022/07/12 12:57:18;;;;;;;;;;;26.30;45.00;;;;;;5000429;28;20631;-64
2022/07/12 12:59:44;;;;;;;;;;;26.30;45.00;;;;;;5001654;28;19923;-64
2022/07/12 13:02:09;;;;;;;;;;;26.30;45.10;;;;;;5002618;28;19951;-64
2022/07/12 13:04:36;;;;;;;;;;;26.30;45.00;;;;;;4998489;28;19912;-63
2022/07/12 13:07:02;;;;;;;;;;;26.40;45.10;;;;;;4996405;28;19920;-65
2022/07/12 13:09:29;;;;;;;;;;;26.40;45.10;;;;;;4993562;28;20859;-64
2022/07/12 13:11:58;;;;;;;;;;;26.40;45.10;;;;;;4996516;28;19913;-64
2022/07/12 13:14:24;;;;;;;;;;;26.40;45.20;;;;;;4997366;28;20479;-64
2022/07/12 13:16:49;;;;;;;;;;;26.40;45.10;;;;;;4998015;28;20583;-65
2022/07/12 13:19:15;;;;;;;;;;;26.40;45.30;;;;;;4998786;28;19967;-66
2022/07/12 13:21:41;;;;;;;;;;;26.40;45.20;;;;;;4996099;28;19917;-64
2022/07/12 13:24:06;;;;;;;;;;;26.40;45.20;;;;;;4996874;28;19944;-63
2022/07/12 13:26:32;;;;;;;;;;;26.40;45.20;;;;;;4997096;28;19917;-65
2022/07/12 13:28:57;;;;;;;;;;;26.40;45.40;;;;;;5000076;28;20448;-63
2022/07/12 13:31:25;;;;;;;;;;;26.40;45.40;;;;;;5002514;28;19936;-65
2022/07/12 13:33:50;;;;;;;;;;;26.40;45.40;;;;;;4998576;28;19917;-62
2022/07/12 13:36:16;;;;;;;;;;;26.50;45.40;;;;;;4997116;28;20651;-63
2022/07/12 13:38:41;;;;;;;;;;;26.50;45.40;;;;;;4996428;28;19913;-62
2022/07/12 13:41:07;;;;;;;;;;;26.50;45.40;;;;;;4993427;28;19924;-63
2022/07/12 13:43:32;;;;;;;;;;;26.50;45.40;;;;;;4997879;28;19913;-64
2022/07/12 13:45:58;;;;;;;;;;;26.50;45.80;;;;;;4996384;28;19917;-64
2022/07/12 13:48:23;;;;;;;;;;;26.50;45.70;;;;;;4998660;28;19919;-65
2022/07/12 13:50:49;;;;;;;;;;;26.50;45.80;;;;;;4994307;28;19913;-64
2022/07/12 13:53:15;;;;;;;;;;;26.50;45.70;;;;;;4998714;28;20698;-61
2022/07/12 13:55:45;;;;;;;;;;;26.50;45.50;;;;;;4999093;28;19916;-63
2022/07/12 13:58:13;;;;;;;;;;;26.60;46.30;;;;;;4998784;28;19913;-64
2022/07/12 14:00:40;;;;;;;;;;;26.60;45.60;;;;;;4998060;28;19917;-64
2022/07/12 14:03:05;;;;;;;;;;;26.60;45.50;;;;;;4996792;28;20058;-64
2022/07/12 14:05:31;;;;;;;;;;;26.60;45.60;;;;;;4998520;28;20079;-63
2022/07/12 14:07:56;;;;;;;;;;;26.60;45.50;;;;;;4997716;28;19913;-62
2022/07/12 14:10:22;;;;;;;;;;;26.70;45.50;;;;;;4993158;28;19921;-63
2022/07/12 14:12:48;;;;;;;;;;;26.60;45.50;;;;;;4995778;28;19913;-63
2022/07/12 14:17:39;;;;;;;;;;;26.70;45.50;;;;;;4998950;28;19913;-64
2022/07/12 14:20:06;;;;;;;;;;;26.70;45.50;;;;;;4998363;28;19921;-64
2022/07/12 14:22:32;;;;;;;;;;;26.70;45.50;;;;;;4992853;28;19916;-64
2022/07/12 14:24:57;;;;;;;;;;;26.70;45.50;;;;;;4998887;28;19920;-64